createdAt,value
2018-08-12T00:00:30.078Z,64.15
2018-08-12T00:01:30.265Z,64.34
2018-08-12T00:02:30.435Z,64.15
2018-08-12T00:03:30.612Z,64.05
2018-08-12T00:04:30.785Z,64.25
2018-08-12T00:05:30.964Z,64.15
2018-08-12T00:06:31.138Z,64.15
2018-08-12T00:07:31.297Z,64.12
2018-08-12T00:08:31.477Z,64.31
2018-08-12T00:09:31.666Z,64.50
2018-08-12T00:10:31.842Z,64.31
2018-08-12T00:11:32.072Z,64.31
2018-08-12T00:12:32.201Z,64.12
2018-08-12T00:13:32.375Z,64.69
2018-08-12T00:14:32.557Z,64.78
2018-08-12T00:15:32.726Z,64.82
2018-08-12T00:16:32.900Z,64.88
2018-08-12T00:17:33.062Z,64.88
2018-08-12T00:18:33.232Z,64.62
2018-08-12T00:19:33.402Z,64.82
2018-08-12T00:20:33.586Z,64.12
2018-08-12T00:22:33.940Z,64.78
2018-08-12T00:23:34.111Z,64.98
2018-08-12T00:24:34.289Z,65.26
2018-08-12T00:25:34.464Z,65.64
2018-08-12T00:26:34.643Z,65.55
2018-08-12T00:27:34.813Z,64.59
2018-08-12T00:28:34.998Z,64.78
2018-08-12T00:29:35.173Z,64.59
2018-08-12T00:30:35.352Z,64.59
2018-08-12T00:31:35.538Z,64.88
2018-08-12T00:32:35.708Z,64.59
2018-08-12T00:33:35.889Z,64.59
2018-08-12T00:34:36.084Z,65.26
2018-08-12T00:35:36.257Z,65.64
2018-08-12T00:36:36.452Z,65.84
2018-08-12T00:37:36.607Z,66.47
2018-08-12T00:38:37.504Z,66.19
2018-08-12T00:39:36.949Z,66.76
2018-08-12T00:40:37.111Z,67.14
2018-08-12T00:41:37.281Z,67.24
2018-08-12T00:42:37.465Z,67.33
2018-08-12T00:43:37.624Z,67.52
2018-08-12T00:44:37.799Z,67.68
2018-08-12T00:45:37.975Z,68.54
2018-08-12T00:46:38.157Z,68.26
2018-08-12T00:47:38.293Z,68.06
2018-08-12T00:48:38.456Z,68.26
2018-08-12T00:49:38.638Z,68.63
2018-08-12T00:50:38.826Z,68.63
2018-08-12T00:51:39.524Z,69.31
2018-08-12T00:52:39.198Z,69.21
2018-08-12T00:53:39.358Z,68.92
2018-08-12T00:54:39.511Z,69.21
2018-08-12T00:55:39.722Z,68.82
2018-08-12T00:56:39.880Z,68.26
2018-08-12T00:57:40.092Z,67.87
2018-08-12T00:58:40.234Z,68.16
2018-08-12T00:59:40.410Z,68.48
2018-08-12T01:00:40.576Z,68.57
2018-08-12T01:01:40.739Z,67.62
2018-08-12T01:02:40.945Z,67.62
2018-08-12T01:03:41.112Z,68.67
2018-08-12T01:04:41.280Z,68.48
2018-08-12T01:05:41.508Z,67.91
2018-08-12T01:06:41.678Z,68.57
2018-08-12T01:07:41.867Z,68.06
2018-08-12T01:08:42.037Z,68.54
2018-08-12T01:09:42.217Z,68.16
2018-08-12T01:10:42.403Z,68.54
2018-08-12T01:11:42.595Z,68.16
2018-08-12T01:12:42.754Z,68.73
2018-08-12T01:13:42.916Z,68.29
2018-08-12T01:14:43.103Z,68.26
2018-08-12T01:15:43.267Z,68.19
2018-08-12T01:16:43.447Z,67.71
2018-08-12T01:17:43.606Z,67.43
2018-08-12T01:18:43.774Z,67.52
2018-08-12T01:19:43.983Z,67.33
2018-08-12T01:20:44.132Z,67.43
2018-08-12T01:21:44.323Z,67.33
2018-08-12T01:22:44.496Z,67.62
2018-08-12T01:23:44.661Z,68.00
2018-08-12T01:24:44.848Z,68.29
2018-08-12T01:25:45.025Z,68.26
2018-08-12T01:26:45.195Z,68.54
2018-08-12T01:27:45.372Z,69.21
2018-08-12T01:28:45.533Z,68.82
2018-08-12T01:29:45.714Z,68.92
2018-08-12T01:30:45.900Z,69.31
2018-08-12T01:31:46.313Z,69.21
2018-08-12T01:32:46.241Z,69.49
2018-08-12T01:33:46.421Z,69.46
2018-08-12T01:34:46.589Z,70.32
2018-08-12T01:35:46.820Z,70.70
2018-08-12T01:36:46.968Z,71.75
2018-08-12T01:37:47.128Z,72.19
2018-08-12T01:38:47.307Z,72.00
2018-08-12T01:39:47.486Z,72.13
2018-08-12T01:40:47.664Z,72.19
2018-08-12T01:41:47.838Z,71.75
2018-08-12T01:42:47.998Z,71.91
2018-08-12T01:43:48.177Z,72.00
2018-08-12T01:44:48.341Z,72.09
2018-08-12T01:45:48.522Z,72.00
2018-08-12T01:46:48.703Z,72.32
2018-08-12T01:47:48.894Z,72.48
2018-08-12T01:48:49.038Z,72.96
2018-08-12T01:49:49.221Z,72.67
2018-08-12T01:50:49.382Z,72.86
2018-08-12T01:51:49.569Z,72.67
2018-08-12T01:52:49.738Z,72.32
2018-08-12T01:53:49.923Z,72.42
2018-08-12T01:54:50.094Z,71.56
2018-08-12T01:55:50.265Z,71.56
2018-08-12T01:56:50.451Z,71.66
2018-08-12T01:57:50.633Z,71.66
2018-08-12T01:58:50.832Z,71.18
2018-08-12T01:59:50.983Z,71.84
2018-08-12T02:00:51.170Z,72.28
2018-08-12T02:01:51.338Z,73.52
2018-08-12T02:02:51.529Z,74.38
2018-08-12T02:03:51.694Z,74.54
2018-08-12T02:04:51.900Z,74.48
2018-08-12T02:05:52.053Z,75.05
2018-08-12T02:06:52.209Z,74.38
2018-08-12T02:07:52.395Z,74.57
2018-08-12T02:08:52.561Z,74.96
2018-08-12T02:09:52.746Z,75.05
2018-08-12T02:10:52.925Z,74.57
2018-08-12T02:11:53.100Z,74.86
2018-08-12T02:12:53.271Z,74.38
2018-08-12T02:13:53.480Z,74.48
2018-08-12T02:14:53.621Z,74.38
2018-08-12T02:15:53.799Z,74.67
2018-08-12T02:16:53.973Z,74.48
2018-08-12T02:17:54.153Z,74.48
2018-08-12T02:18:54.320Z,74.86
2018-08-12T02:19:54.497Z,74.82
2018-08-12T02:20:54.674Z,74.77
2018-08-12T02:21:54.860Z,74.48
2018-08-12T02:22:55.025Z,74.48
2018-08-12T02:23:55.201Z,74.38
2018-08-12T02:24:55.380Z,75.53
2018-08-12T02:25:55.559Z,76.39
2018-08-12T02:26:55.744Z,75.62
2018-08-12T02:27:55.906Z,75.72
2018-08-12T02:28:56.085Z,75.24
2018-08-12T02:29:56.258Z,74.86
2018-08-12T02:30:56.439Z,75.43
2018-08-12T02:31:56.605Z,75.15
2018-08-12T02:32:56.773Z,74.57
2018-08-12T02:33:56.980Z,72.86
2018-08-12T02:34:57.129Z,73.14
2018-08-12T02:35:57.305Z,73.33
2018-08-12T02:36:57.496Z,73.14
2018-08-12T02:37:57.646Z,73.05
2018-08-12T02:38:57.824Z,73.33
2018-08-12T02:39:57.994Z,73.33
2018-08-12T02:40:58.185Z,73.62
2018-08-12T02:41:58.340Z,74.63
2018-08-12T02:42:58.522Z,74.86
2018-08-12T02:43:58.688Z,74.77
2018-08-12T02:44:58.860Z,74.96
2018-08-12T02:45:59.056Z,74.19
2018-08-12T02:46:59.238Z,74.29
2018-08-12T02:47:59.400Z,73.91
2018-08-12T02:48:59.567Z,73.72
2018-08-12T02:49:59.764Z,73.52
2018-08-12T02:50:59.920Z,73.33
2018-08-12T02:53:00.319Z,74.29
2018-08-12T02:54:00.440Z,74.96
2018-08-12T02:55:00.620Z,74.77
2018-08-12T02:56:00.779Z,74.96
2018-08-12T02:57:00.953Z,74.29
2018-08-12T02:58:01.148Z,73.91
2018-08-12T02:59:01.305Z,74.10
2018-08-12T03:00:01.500Z,73.81
2018-08-12T03:01:01.667Z,74.48
2018-08-12T03:02:02.200Z,74.38
2018-08-12T03:03:02.034Z,74.29
2018-08-12T03:04:02.199Z,73.81
2018-08-12T03:05:02.369Z,74.01
2018-08-12T03:06:02.545Z,73.52
2018-08-12T03:07:02.725Z,73.91
2018-08-12T03:08:02.903Z,74.10
2018-08-12T03:09:03.090Z,73.43
2018-08-12T03:10:03.268Z,73.62
2018-08-12T03:11:03.434Z,73.52
2018-08-12T03:12:06.560Z,73.52
2018-08-12T03:13:03.829Z,73.24
2018-08-12T03:14:04.010Z,73.52
2018-08-12T03:15:04.185Z,74.38
2018-08-12T03:16:04.694Z,74.67
2018-08-12T03:17:04.511Z,74.38
2018-08-12T03:18:04.696Z,74.44
2018-08-12T03:19:04.865Z,74.63
2018-08-12T03:20:05.047Z,74.63
2018-08-12T03:21:05.221Z,75.30
2018-08-12T03:22:05.404Z,74.82
2018-08-12T03:23:05.589Z,75.01
2018-08-12T03:24:05.748Z,74.77
2018-08-12T03:25:05.921Z,74.82
2018-08-12T03:26:06.082Z,74.96
2018-08-12T03:27:06.258Z,74.57
2018-08-12T03:28:06.434Z,74.38
2018-08-12T03:29:06.621Z,74.77
2018-08-12T03:30:06.847Z,74.38
2018-08-12T03:31:06.971Z,74.38
2018-08-12T03:32:07.146Z,74.25
2018-08-12T03:33:07.315Z,75.01
2018-08-12T03:34:07.483Z,74.86
2018-08-12T03:35:10.590Z,74.38
2018-08-12T03:36:07.849Z,74.48
2018-08-12T03:37:08.037Z,75.05
2018-08-12T03:38:08.212Z,75.01
2018-08-12T03:39:08.391Z,74.63
2018-08-12T03:40:08.613Z,74.73
2018-08-12T03:41:08.743Z,74.92
2018-08-12T03:42:08.923Z,75.11
2018-08-12T03:43:09.096Z,75.11
2018-08-12T03:44:09.280Z,75.11
2018-08-12T03:45:09.468Z,74.82
2018-08-12T03:46:09.630Z,75.30
2018-08-12T03:47:09.816Z,75.20
2018-08-12T03:48:09.990Z,75.96
2018-08-12T03:49:10.180Z,75.87
2018-08-12T03:50:10.338Z,75.87
2018-08-12T03:51:10.519Z,76.12
2018-08-12T03:52:10.693Z,76.92
2018-08-12T03:53:10.871Z,76.31
2018-08-12T03:54:11.049Z,76.50
2018-08-12T03:55:11.239Z,77.07
2018-08-12T03:56:11.406Z,76.40
2018-08-12T03:57:11.585Z,76.44
2018-08-12T03:58:11.770Z,76.25
2018-08-12T03:59:12.182Z,76.50
2018-08-12T04:00:12.113Z,76.64
2018-08-12T04:01:12.295Z,76.06
2018-08-12T04:02:12.501Z,76.12
2018-08-12T04:03:12.644Z,77.07
2018-08-12T04:04:12.832Z,76.44
2018-08-12T04:05:13.001Z,76.50
2018-08-12T04:06:13.183Z,76.50
2018-08-12T04:07:13.360Z,76.82
2018-08-12T04:08:13.535Z,76.69
2018-08-12T04:09:13.721Z,76.21
2018-08-12T04:10:13.898Z,75.96
2018-08-12T04:11:14.069Z,76.25
2018-08-12T04:12:14.296Z,76.25
2018-08-12T04:13:14.427Z,75.93
2018-08-12T04:14:14.608Z,76.31
2018-08-12T04:15:14.804Z,76.31
2018-08-12T04:16:14.957Z,77.36
2018-08-12T04:17:15.172Z,77.17
2018-08-12T04:18:15.291Z,77.74
2018-08-12T04:19:15.472Z,78.22
2018-08-12T04:20:15.650Z,78.22
2018-08-12T04:21:15.834Z,77.74
2018-08-12T04:22:16.016Z,77.36
2018-08-12T04:23:16.200Z,77.93
2018-08-12T04:24:16.379Z,77.64
2018-08-12T04:25:16.565Z,78.27
2018-08-12T04:26:16.733Z,78.56
2018-08-12T04:27:16.911Z,78.37
2018-08-12T04:28:17.092Z,79.22
2018-08-12T04:29:17.265Z,79.13
2018-08-12T04:30:17.449Z,78.85
2018-08-12T04:31:17.623Z,78.59
2018-08-12T04:32:17.803Z,77.93
2018-08-12T04:33:17.976Z,77.36
2018-08-12T04:34:18.154Z,76.73
2018-08-12T04:35:18.334Z,76.35
2018-08-12T04:36:18.522Z,75.24
2018-08-12T04:37:18.703Z,73.91
2018-08-12T04:38:18.880Z,73.18
2018-08-12T04:39:19.059Z,71.78
2018-08-12T04:40:19.231Z,70.45
2018-08-12T04:41:19.425Z,69.15
2018-08-12T04:42:19.599Z,68.76
2018-08-12T04:43:19.778Z,67.46
2018-08-12T04:44:19.955Z,66.22
2018-08-12T04:45:20.140Z,65.64
2018-08-12T04:46:20.314Z,65.30
2018-08-12T04:47:20.493Z,64.91
2018-08-12T04:48:20.676Z,63.89
2018-08-12T04:49:20.857Z,62.01
2018-08-12T04:50:21.041Z,60.58
2018-08-12T04:51:21.208Z,60.41
2018-08-12T04:52:21.381Z,60.51
2018-08-12T04:53:21.810Z,60.13
2018-08-12T04:54:21.765Z,58.91
2018-08-12T04:55:21.939Z,58.24
2018-08-12T04:56:22.133Z,57.76
2018-08-12T04:57:22.320Z,58.50
2018-08-12T04:58:22.491Z,59.17
2018-08-12T04:59:22.669Z,58.98
2018-08-12T05:00:22.854Z,58.81
2018-08-12T05:01:23.037Z,57.76
2018-08-12T05:02:23.226Z,57.57
2018-08-12T05:03:23.404Z,58.24
2018-08-12T05:04:23.591Z,58.44
2018-08-12T05:05:23.770Z,59.11
2018-08-12T05:06:23.962Z,59.55
2018-08-12T05:07:24.150Z,59.55
2018-08-12T05:08:24.336Z,59.23
2018-08-12T05:09:24.508Z,60.00
2018-08-12T05:10:24.705Z,60.67
2018-08-12T05:11:24.895Z,60.29
2018-08-12T05:12:25.079Z,60.48
2018-08-12T05:13:25.275Z,60.67
2018-08-12T05:14:25.431Z,60.83
2018-08-12T05:15:25.611Z,61.05
2018-08-12T05:16:25.791Z,61.25
2018-08-12T05:17:26.222Z,61.05
2018-08-12T05:18:26.162Z,61.22
2018-08-12T05:19:26.357Z,61.22
2018-08-12T05:20:26.536Z,61.12
2018-08-12T05:21:26.720Z,61.41
2018-08-12T05:22:26.898Z,61.66
2018-08-12T05:23:27.076Z,62.71
2018-08-12T05:24:27.271Z,63.48
2018-08-12T05:25:27.452Z,62.65
2018-08-12T05:26:27.635Z,62.37
2018-08-12T05:27:27.817Z,61.98
2018-08-12T05:28:28.003Z,61.69
2018-08-12T05:29:28.186Z,61.44
2018-08-12T05:30:28.379Z,60.77
2018-08-12T05:31:28.553Z,60.67
2018-08-12T05:32:28.738Z,60.38
2018-08-12T05:33:28.928Z,60.38
2018-08-12T05:34:29.113Z,60.58
2018-08-12T05:35:29.296Z,60.67
2018-08-12T05:36:29.550Z,60.29
2018-08-12T05:37:29.675Z,60.19
2018-08-12T05:38:29.863Z,60.41
2018-08-12T05:39:30.045Z,59.55
2018-08-12T05:40:30.238Z,59.65
2018-08-12T05:41:30.425Z,58.81
2018-08-12T05:42:30.599Z,59.39
2018-08-12T05:43:30.795Z,58.15
2018-08-12T05:44:30.980Z,58.08
2018-08-12T05:45:31.157Z,57.03
2018-08-12T05:46:31.345Z,56.45
2018-08-12T05:47:31.532Z,56.00
2018-08-12T05:48:31.969Z,55.13
2018-08-12T05:49:31.909Z,55.62
2018-08-12T05:50:32.092Z,55.52
2018-08-12T05:51:32.333Z,55.90
2018-08-12T05:52:32.489Z,55.16
2018-08-12T05:53:32.662Z,53.75
2018-08-12T05:54:32.847Z,52.98
2018-08-12T05:55:33.020Z,52.98
2018-08-12T05:56:33.225Z,53.27
2018-08-12T05:57:33.398Z,52.50
2018-08-12T05:58:33.600Z,53.11
2018-08-12T05:59:33.760Z,53.11
2018-08-12T06:00:33.955Z,53.08
2018-08-12T06:01:34.147Z,52.72
2018-08-12T06:02:34.376Z,52.26
2018-08-12T06:03:34.522Z,51.14
2018-08-12T06:04:34.722Z,50.18
2018-08-12T06:05:34.922Z,50.08
2018-08-12T06:06:35.097Z,49.91
2018-08-12T06:07:35.285Z,49.12
2018-08-12T06:08:35.471Z,49.60
2018-08-12T06:09:35.665Z,49.15
2018-08-12T06:10:35.843Z,48.18
2018-08-12T06:11:36.032Z,47.72
2018-08-12T06:12:36.211Z,46.88
2018-08-12T06:13:36.401Z,46.95
2018-08-12T06:14:36.582Z,46.98
2018-08-12T06:15:36.825Z,46.77
2018-08-12T06:16:36.988Z,47.82
2018-08-12T06:17:37.122Z,47.24
2018-08-12T06:18:37.309Z,47.63
2018-08-12T06:19:37.719Z,47.15
2018-08-12T06:20:37.662Z,46.50
2018-08-12T06:21:37.856Z,45.94
2018-08-12T06:22:38.045Z,45.46
2018-08-12T06:23:38.230Z,44.81
2018-08-12T06:24:38.430Z,44.15
2018-08-12T06:25:38.637Z,44.25
2018-08-12T06:26:38.806Z,43.58
2018-08-12T06:27:38.997Z,43.75
2018-08-12T06:28:39.182Z,45.46
2018-08-12T06:29:39.375Z,44.90
2018-08-12T06:30:39.563Z,45.48
2018-08-12T06:31:39.753Z,45.20
2018-08-12T06:32:39.939Z,45.75
2018-08-12T06:33:40.138Z,45.17
2018-08-12T06:34:40.310Z,46.04
2018-08-12T06:35:40.492Z,46.31
2018-08-12T06:36:40.684Z,46.78
2018-08-12T06:37:40.873Z,46.38
2018-08-12T06:38:41.063Z,46.69
2018-08-12T06:39:41.252Z,46.52
2018-08-12T06:40:41.435Z,46.23
2018-08-12T06:41:41.624Z,46.06
2018-08-12T06:42:41.825Z,46.69
2018-08-12T06:43:42.239Z,46.98
2018-08-12T06:44:42.194Z,48.30
2018-08-12T06:45:42.374Z,48.02
2018-08-12T06:46:42.564Z,48.21
2018-08-12T06:47:42.745Z,48.40
2018-08-12T06:48:42.942Z,48.95
2018-08-12T06:49:43.131Z,48.40
2018-08-12T06:50:43.311Z,47.85
2018-08-12T06:51:43.574Z,46.88
2018-08-12T06:52:43.695Z,46.91
2018-08-12T06:53:43.879Z,46.62
2018-08-12T06:54:44.060Z,46.62
2018-08-12T06:55:44.247Z,46.59
2018-08-12T06:56:44.435Z,46.23
2018-08-12T06:57:44.650Z,46.06
2018-08-12T06:58:44.840Z,46.42
2018-08-12T06:59:45.038Z,46.59
2018-08-12T07:00:45.221Z,46.52
2018-08-12T07:01:45.409Z,45.77
2018-08-12T07:02:45.598Z,45.48
2018-08-12T07:03:45.794Z,44.73
2018-08-12T07:04:45.990Z,44.13
2018-08-12T07:05:46.174Z,45.10
2018-08-12T07:06:46.352Z,45.10
2018-08-12T07:07:46.545Z,45.39
2018-08-12T07:08:46.727Z,44.71
2018-08-12T07:09:46.920Z,44.81
2018-08-12T07:10:47.101Z,45.68
2018-08-12T07:11:47.288Z,45.10
2018-08-12T07:12:47.484Z,45.36
2018-08-12T07:13:47.667Z,46.14
2018-08-12T07:14:47.865Z,45.48
2018-08-12T07:15:48.074Z,44.81
2018-08-12T07:16:48.253Z,44.71
2018-08-12T07:17:48.421Z,45.10
2018-08-12T07:18:48.612Z,46.04
2018-08-12T07:19:48.798Z,45.97
2018-08-12T07:20:48.984Z,44.90
2018-08-12T07:21:49.168Z,44.54
2018-08-12T07:22:49.354Z,43.79
2018-08-12T07:23:49.534Z,42.46
2018-08-12T07:24:49.786Z,41.78
2018-08-12T07:25:49.917Z,41.78
2018-08-12T07:26:50.105Z,41.69
2018-08-12T07:27:50.291Z,41.88
2018-08-12T07:28:50.479Z,41.33
2018-08-12T07:29:50.661Z,41.50
2018-08-12T07:30:50.852Z,41.11
2018-08-12T07:31:51.036Z,40.84
2018-08-12T07:32:51.267Z,40.94
2018-08-12T07:33:51.422Z,40.84
2018-08-12T07:34:51.613Z,40.45
2018-08-12T07:35:51.811Z,40.26
2018-08-12T07:36:51.996Z,39.51
2018-08-12T07:37:52.185Z,38.83
2018-08-12T07:38:52.379Z,38.76
2018-08-12T07:39:52.573Z,38.76
2018-08-12T07:40:52.760Z,39.51
2018-08-12T07:41:52.950Z,39.61
2018-08-12T07:42:53.139Z,38.95
2018-08-12T07:43:53.327Z,39.97
2018-08-12T07:44:53.515Z,39.80
2018-08-12T07:45:53.700Z,40.36
2018-08-12T07:46:53.887Z,39.97
2018-08-12T07:47:54.073Z,40.28
2018-08-12T07:48:54.335Z,40.09
2018-08-12T07:49:54.446Z,40.38
2018-08-12T07:50:54.630Z,40.07
2018-08-12T07:51:54.813Z,40.28
2018-08-12T07:52:55.011Z,40.09
2018-08-12T07:53:55.214Z,41.03
2018-08-12T07:54:55.379Z,40.75
2018-08-12T07:55:55.585Z,40.86
2018-08-12T07:56:55.761Z,40.65
2018-08-12T07:57:55.945Z,40.57
2018-08-12T07:58:56.140Z,41.42
2018-08-12T07:59:56.325Z,40.67
2018-08-12T08:00:56.507Z,40.20
2018-08-12T08:01:56.705Z,40.40
2018-08-12T08:02:56.888Z,39.72
2018-08-12T08:03:57.066Z,39.92
2018-08-12T08:04:57.256Z,40.09
2018-08-12T08:05:57.428Z,40.57
2018-08-12T08:06:57.618Z,40.36
2018-08-12T08:07:57.803Z,40.94
2018-08-12T08:08:57.978Z,40.28
2018-08-12T08:09:58.181Z,40.19
2018-08-12T08:10:58.346Z,39.92
2018-08-12T08:11:58.508Z,39.26
2018-08-12T08:12:58.684Z,39.62
2018-08-12T08:13:58.934Z,39.82
2018-08-12T08:14:59.062Z,39.72
2018-08-12T08:15:59.247Z,39.55
2018-08-12T08:16:59.434Z,38.70
2018-08-12T08:17:59.623Z,38.21
2018-08-12T08:18:59.808Z,38.02
2018-08-12T08:19:59.972Z,38.41
2018-08-12T08:21:00.161Z,38.33
2018-08-12T08:22:00.375Z,37.94
2018-08-12T08:23:00.496Z,37.75
2018-08-12T08:24:00.682Z,37.75
2018-08-12T08:25:00.877Z,37.46
2018-08-12T08:26:01.020Z,37.57
2018-08-12T08:27:01.218Z,36.99
2018-08-12T08:28:01.404Z,37.26
2018-08-12T08:29:01.596Z,36.90
2018-08-12T08:30:01.781Z,36.99
2018-08-12T08:31:01.991Z,36.60
2018-08-12T08:32:02.317Z,36.14
2018-08-12T08:33:02.345Z,35.67
2018-08-12T08:34:02.493Z,35.67
2018-08-12T08:35:02.679Z,34.80
2018-08-12T08:36:02.873Z,34.72
2018-08-12T08:37:03.051Z,33.36
2018-08-12T08:38:03.305Z,33.73
2018-08-12T08:39:03.417Z,34.04
2018-08-12T08:40:03.585Z,33.25
2018-08-12T08:41:03.775Z,34.97
2018-08-12T08:42:03.954Z,34.97
2018-08-12T08:43:04.145Z,35.66
2018-08-12T08:44:04.362Z,35.54
2018-08-12T08:45:04.518Z,36.60
2018-08-12T08:46:04.689Z,35.64
2018-08-12T08:47:04.849Z,35.54
2018-08-12T08:48:05.045Z,35.46
2018-08-12T08:49:05.224Z,34.89
2018-08-12T08:50:05.422Z,34.89
2018-08-12T08:51:05.598Z,34.04
2018-08-12T08:52:05.776Z,33.76
2018-08-12T08:53:05.962Z,33.46
2018-08-12T08:54:06.171Z,34.22
2018-08-12T08:55:06.330Z,34.51
2018-08-12T08:56:06.616Z,34.04
2018-08-12T08:57:06.706Z,33.76
2018-08-12T08:58:06.883Z,33.57
2018-08-12T08:59:07.062Z,33.67
2018-08-12T09:00:07.233Z,33.28
2018-08-12T09:01:07.420Z,33.65
2018-08-12T09:02:07.590Z,33.67
2018-08-12T09:03:07.759Z,33.28
2018-08-12T09:04:07.953Z,32.32
2018-08-12T09:05:08.128Z,32.05
2018-08-12T09:06:08.312Z,31.94
2018-08-12T09:07:08.504Z,32.87
2018-08-12T09:08:08.839Z,33.38
2018-08-12T09:09:09.069Z,33.65
2018-08-12T09:10:09.046Z,33.67
2018-08-12T09:11:09.210Z,33.69
2018-08-12T09:12:09.401Z,33.02
2018-08-12T09:13:09.597Z,32.34
2018-08-12T09:14:09.759Z,32.42
2018-08-12T09:15:09.933Z,32.17
2018-08-12T09:16:10.119Z,31.48
2018-08-12T09:17:10.302Z,31.48
2018-08-12T09:18:10.564Z,31.48
2018-08-12T09:19:10.662Z,30.82
2018-08-12T09:20:10.839Z,30.72
2018-08-12T09:21:11.010Z,31.21
2018-08-12T09:22:11.207Z,30.24
2018-08-12T09:23:11.388Z,30.51
2018-08-12T09:24:11.585Z,30.71
2018-08-12T09:25:11.773Z,30.71
2018-08-12T09:26:11.951Z,30.79
2018-08-12T09:27:12.121Z,30.98
2018-08-12T09:28:12.311Z,32.12
2018-08-12T09:29:12.539Z,32.15
2018-08-12T09:30:12.737Z,31.68
2018-08-12T09:31:12.950Z,30.61
2018-08-12T09:32:13.154Z,30.58
2018-08-12T09:33:13.305Z,30.79
2018-08-12T09:34:13.502Z,30.71
2018-08-12T09:35:13.691Z,30.62
2018-08-12T09:36:13.885Z,30.62
2018-08-12T09:37:14.051Z,29.38
2018-08-12T09:38:14.240Z,28.20
2018-08-12T09:39:14.431Z,28.69
2018-08-12T09:40:14.635Z,27.55
2018-08-12T09:41:14.831Z,26.58
2018-08-12T09:42:15.006Z,27.94
2018-08-12T09:43:15.196Z,27.75
2018-08-12T09:44:15.402Z,28.03
2018-08-12T09:45:15.558Z,27.75
2018-08-12T09:46:15.744Z,27.26
2018-08-12T09:48:16.123Z,26.58
2018-08-12T09:49:16.330Z,26.12
2018-08-12T09:50:16.525Z,26.31
2018-08-12T09:51:16.762Z,26.02
2018-08-12T09:52:16.885Z,26.12
2018-08-12T09:53:17.073Z,26.41
2018-08-12T09:54:17.291Z,26.89
2018-08-12T09:55:17.470Z,27.45
2018-08-12T09:56:17.664Z,27.45
2018-08-12T09:57:17.870Z,28.05
2018-08-12T09:58:18.340Z,27.66
2018-08-12T09:59:18.258Z,27.55
2018-08-12T10:00:18.482Z,27.36
2018-08-12T10:01:18.612Z,27.47
2018-08-12T10:02:18.831Z,27.45
2018-08-12T10:03:19.009Z,27.84
2018-08-12T10:04:19.209Z,27.64
2018-08-12T10:05:19.660Z,28.13
2018-08-12T10:06:19.600Z,27.43
2018-08-12T10:07:19.854Z,27.73
2018-08-12T10:08:19.953Z,28.33
2018-08-12T10:09:20.168Z,26.97
2018-08-12T10:10:20.320Z,27.64
2018-08-12T10:11:20.529Z,27.55
2018-08-12T10:12:20.729Z,28.14
2018-08-12T10:13:20.943Z,28.33
2018-08-12T10:14:21.100Z,27.84
2018-08-12T10:15:21.345Z,28.44
2018-08-12T10:16:21.475Z,27.84
2018-08-12T10:17:21.711Z,28.22
2018-08-12T10:18:21.874Z,28.61
2018-08-12T10:19:22.060Z,28.33
2018-08-12T10:20:22.210Z,27.94
2018-08-12T10:21:22.424Z,27.55
2018-08-12T10:22:22.607Z,27.84
2018-08-12T10:23:22.806Z,27.83
2018-08-12T10:24:22.969Z,28.69
2018-08-12T10:25:23.196Z,28.88
2018-08-12T10:26:23.414Z,29.36
2018-08-12T10:27:23.586Z,28.68
2018-08-12T10:28:23.804Z,29.06
2018-08-12T10:29:23.934Z,28.88
2018-08-12T10:30:24.119Z,29.80
2018-08-12T10:31:24.327Z,31.34
2018-08-12T10:32:24.527Z,30.77
2018-08-12T10:33:24.688Z,30.30
2018-08-12T10:34:24.862Z,30.21
2018-08-12T10:35:25.046Z,29.25
2018-08-12T10:36:25.217Z,28.97
2018-08-12T10:37:25.409Z,29.16
2018-08-12T10:38:25.580Z,29.16
2018-08-12T10:39:25.781Z,29.44
2018-08-12T10:40:26.031Z,29.25
2018-08-12T10:41:26.215Z,29.44
2018-08-12T10:42:26.385Z,29.15
2018-08-12T10:43:26.554Z,29.74
2018-08-12T10:44:26.796Z,29.26
2018-08-12T10:45:26.947Z,28.99
2018-08-12T10:46:27.114Z,29.44
2018-08-12T10:47:27.295Z,28.86
2018-08-12T10:48:27.488Z,29.15
2018-08-12T10:49:27.689Z,29.24
2018-08-12T10:50:27.886Z,30.48
2018-08-12T10:51:28.026Z,30.85
2018-08-12T10:52:28.214Z,30.59
2018-08-12T10:53:28.402Z,30.76
2018-08-12T10:54:28.560Z,30.85
2018-08-12T10:55:28.742Z,30.59
2018-08-12T10:56:28.930Z,30.59
2018-08-12T10:57:29.089Z,30.30
2018-08-12T10:58:29.289Z,30.22
2018-08-12T10:59:29.554Z,29.93
2018-08-12T11:00:29.635Z,29.54
2018-08-12T11:01:29.837Z,28.97
2018-08-12T11:02:30.044Z,28.88
2018-08-12T11:03:30.245Z,28.69
2018-08-12T11:04:30.424Z,28.32
2018-08-12T11:05:30.628Z,27.93
2018-08-12T11:06:31.769Z,27.73
2018-08-12T11:07:31.117Z,27.54
2018-08-12T11:08:31.156Z,28.02
2018-08-12T11:09:31.331Z,27.82
2018-08-12T11:10:31.518Z,26.36
2018-08-12T11:11:31.701Z,26.55
2018-08-12T11:12:31.891Z,26.47
2018-08-12T11:13:32.095Z,26.86
2018-08-12T11:14:32.253Z,26.19
2018-08-12T11:15:32.433Z,26.19
2018-08-12T11:16:32.631Z,25.79
2018-08-12T11:17:32.813Z,26.08
2018-08-12T11:18:33.017Z,25.78
2018-08-12T11:19:33.307Z,26.06
2018-08-12T11:20:33.397Z,26.55
2018-08-12T11:21:33.564Z,26.55
2018-08-12T11:22:33.813Z,25.87
2018-08-12T11:23:33.980Z,25.78
2018-08-12T11:24:34.104Z,25.68
2018-08-12T11:25:34.325Z,24.99
2018-08-12T11:26:34.491Z,25.68
2018-08-12T11:27:34.697Z,26.17
2018-08-12T11:28:34.879Z,25.78
2018-08-12T11:29:35.028Z,24.90
2018-08-12T11:30:35.194Z,25.27
2018-08-12T11:31:35.388Z,25.86
2018-08-12T11:32:35.580Z,26.07
2018-08-12T11:33:35.749Z,25.89
2018-08-12T11:34:35.945Z,25.69
2018-08-12T11:35:36.125Z,24.82
2018-08-12T11:36:36.315Z,25.30
2018-08-12T11:37:36.494Z,25.19
2018-08-12T11:38:36.669Z,25.20
2018-08-12T11:39:36.856Z,24.54
2018-08-12T11:40:37.068Z,24.54
2018-08-12T11:41:37.259Z,23.85
2018-08-12T11:42:37.447Z,24.72
2018-08-12T11:43:37.666Z,23.65
2018-08-12T11:44:37.801Z,23.85
2018-08-12T11:45:37.983Z,23.66
2018-08-12T11:46:38.144Z,23.17
2018-08-12T11:47:38.365Z,23.07
2018-08-12T11:48:38.483Z,23.56
2018-08-12T11:49:38.692Z,23.18
2018-08-12T11:50:38.852Z,22.20
2018-08-12T11:51:39.697Z,21.50
2018-08-12T11:52:39.209Z,21.79
2018-08-12T11:53:39.377Z,22.16
2018-08-12T11:54:39.546Z,21.58
2018-08-12T11:55:39.976Z,22.47
2018-08-12T11:56:39.892Z,22.38
2018-08-12T11:57:40.092Z,22.48
2018-08-12T11:58:40.277Z,22.19
2018-08-12T11:59:40.460Z,22.86
2018-08-12T12:00:40.657Z,23.14
2018-08-12T12:01:40.842Z,23.52
2018-08-12T12:02:41.043Z,23.88
2018-08-12T12:03:41.242Z,23.99
2018-08-12T12:04:41.423Z,23.80
2018-08-12T12:05:41.597Z,23.33
2018-08-12T12:06:41.820Z,23.44
2018-08-12T12:07:42.009Z,23.35
2018-08-12T12:08:42.211Z,22.87
2018-08-12T12:09:42.414Z,22.77
2018-08-12T12:10:42.595Z,23.35
2018-08-12T12:11:42.824Z,22.96
2018-08-12T12:12:42.955Z,23.35
2018-08-12T12:13:43.136Z,23.16
2018-08-12T12:14:43.351Z,23.04
2018-08-12T12:15:43.532Z,22.55
2018-08-12T12:16:43.705Z,21.68
2018-08-12T12:17:43.878Z,21.97
2018-08-12T12:18:44.067Z,21.68
2018-08-12T12:19:44.264Z,21.48
2018-08-12T12:20:44.423Z,22.17
2018-08-12T12:21:44.603Z,22.17
2018-08-12T12:22:44.797Z,22.09
2018-08-12T12:23:44.960Z,22.28
2018-08-12T12:24:45.173Z,21.31
2018-08-12T12:25:45.348Z,21.41
2018-08-12T12:26:45.507Z,21.99
2018-08-12T12:27:45.689Z,22.19
2018-08-12T12:28:45.829Z,21.88
2018-08-12T12:29:46.013Z,22.28
2018-08-12T12:30:46.196Z,22.19
2018-08-12T12:31:46.385Z,22.09
2018-08-12T12:32:46.570Z,22.08
2018-08-12T12:33:46.762Z,22.08
2018-08-12T12:34:46.941Z,22.08
2018-08-12T12:35:47.106Z,22.47
2018-08-12T12:36:47.270Z,22.58
2018-08-12T12:37:48.291Z,21.80
2018-08-12T12:38:47.723Z,22.09
2018-08-12T12:39:47.897Z,22.38
2018-08-12T12:40:48.312Z,22.59
2018-08-12T12:41:48.251Z,21.32
2018-08-12T12:42:48.504Z,21.61
2018-08-12T12:43:48.630Z,21.42
2018-08-12T12:44:48.789Z,21.42
2018-08-12T12:45:48.956Z,22.20
2018-08-12T12:46:49.166Z,22.10
2018-08-12T12:47:49.328Z,21.51
2018-08-12T12:48:49.502Z,21.51
2018-08-12T12:49:49.731Z,21.42
2018-08-12T12:50:49.947Z,21.61
2018-08-12T12:51:50.181Z,21.03
2018-08-12T12:52:50.252Z,21.03
2018-08-12T12:53:50.421Z,21.02
2018-08-12T12:54:50.618Z,21.61
2018-08-12T12:55:50.889Z,21.51
2018-08-12T12:56:51.083Z,21.03
2018-08-12T12:57:51.213Z,22.10